sensor_id;sensor_type;location;lat;lon;timestamp;temperature;humidity
5683;DHT22;2864;49.220;8.654;2022-10-16T00:01:41;16.70;99.90
5683;DHT22;2864;49.220;8.654;2022-10-16T00:04:08;15.70;99.90
5683;DHT22;2864;49.220;8.654;2022-10-16T00:06:33;15.70;99.90
5683;DHT22;2864;49.220;8.654;2022-10-16T00:08:59;15.80;99.90
5683;DHT22;2864;49.220;8.654;2022-10-16T00:11:33;15.80;99.90
5683;DHT22;2864;49.220;8.654;2022-10-16T00:14:01;15.90;99.90
5683;DHT22;2864;49.220;8.654;2022-10-16T00:16:27;16.40;99.90
5683;DHT22;2864;49.220;8.654;2022-10-16T00:18:54;15.90;99.90
5683;DHT22;2864;49.220;8.654;2022-10-16T00:21:24;17.70;99.90
5683;DHT22;2864;49.220;8.654;2022-10-16T00:23:59;16.00;99.90
5683;DHT22;2864;49.220;8.654;2022-10-16T00:26:25;16.00;99.90
5683;DHT22;2864;49.220;8.654;2022-10-16T00:28:52;17.70;99.90
5683;DHT22;2864;49.220;8.654;2022-10-16T00:31:19;16.00;99.90
5683;DHT22;2864;49.220;8.654;2022-10-16T00:33:45;17.00;99.90
5683;DHT22;2864;49.220;8.654;2022-10-16T00:36:16;16.30;99.90
5683;DHT22;2864;49.220;8.654;2022-10-16T00:38:42;16.00;99.90
5683;DHT22;2864;49.220;8.654;2022-10-16T00:41:11;15.90;99.90
5683;DHT22;2864;49.220;8.654;2022-10-16T00:46:22;15.80;99.90
5683;DHT22;2864;49.220;8.654;2022-10-16T00:49:14;15.90;99.90
5683;DHT22;2864;49.220;8.654;2022-10-16T00:51:42;15.90;99.90
5683;DHT22;2864;49.220;8.654;2022-10-16T00:54:14;16.00;99.90
5683;DHT22;2864;49.220;8.654;2022-10-16T00:56:41;15.90;99.90
5683;DHT22;2864;49.220;8.654;2022-10-16T00:59:13;16.00;99.90
5683;DHT22;2864;49.220;8.654;2022-10-16T01:01:40;15.90;99.90
5683;DHT22;2864;49.220;8.654;2022-10-16T01:04:05;15.90;99.90
5683;DHT22;2864;49.220;8.654;2022-10-16T01:07:11;16.10;99.90
5683;DHT22;2864;49.220;8.654;2022-10-16T01:09:37;15.90;99.90
5683;DHT22;2864;49.220;8.654;2022-10-16T01:12:12;15.90;99.90
5683;DHT22;2864;49.220;8.654;2022-10-16T01:14:55;16.00;99.90
5683;DHT22;2864;49.220;8.654;2022-10-16T01:28:36;16.00;99.90
5683;DHT22;2864;49.220;8.654;2022-10-16T01:31:04;16.00;99.90
5683;DHT22;2864;49.220;8.654;2022-10-16T01:33:38;16.00;99.90
5683;DHT22;2864;49.220;8.654;2022-10-16T01:36:28;16.00;99.90
5683;DHT22;2864;49.220;8.654;2022-10-16T01:39:00;16.00;99.90
5683;DHT22;2864;49.220;8.654;2022-10-16T01:41:32;16.10;99.90
5683;DHT22;2864;49.220;8.654;2022-10-16T01:44:05;16.00;99.90
5683;DHT22;2864;49.220;8.654;2022-10-16T01:46:35;16.10;99.90
5683;DHT22;2864;49.220;8.654;2022-10-16T01:49:02;16.00;99.90
5683;DHT22;2864;49.220;8.654;2022-10-16T01:51:29;16.00;99.90
5683;DHT22;2864;49.220;8.654;2022-10-16T01:53:57;16.00;99.90
5683;DHT22;2864;49.220;8.654;2022-10-16T01:56:25;17.30;99.90
5683;DHT22;2864;49.220;8.654;2022-10-16T01:59:00;15.90;99.90
5683;DHT22;2864;49.220;8.654;2022-10-16T02:01:28;15.90;99.90
5683;DHT22;2864;49.220;8.654;2022-10-16T02:03:58;15.80;99.90
5683;DHT22;2864;49.220;8.654;2022-10-16T02:06:26;15.80;99.90
5683;DHT22;2864;49.220;8.654;2022-10-16T02:08:53;15.80;99.90
5683;DHT22;2864;49.220;8.654;2022-10-16T02:11:19;15.80;99.90
5683;DHT22;2864;49.220;8.654;2022-10-16T02:13:51;16.20;99.90
5683;DHT22;2864;49.220;8.654;2022-10-16T02:16:19;17.00;99.90
5683;DHT22;2864;49.220;8.654;2022-10-16T02:18:44;16.10;99.90
5683;DHT22;2864;49.220;8.654;2022-10-16T02:21:22;16.70;99.90
5683;DHT22;2864;49.220;8.654;2022-10-16T02:24:14;15.70;99.90
5683;DHT22;2864;49.220;8.654;2022-10-16T02:26:51;15.70;99.90
5683;DHT22;2864;49.220;8.654;2022-10-16T02:29:22;15.70;99.90
5683;DHT22;2864;49.220;8.654;2022-10-16T02:31:52;15.60;99.90
5683;DHT22;2864;49.220;8.654;2022-10-16T02:34:21;15.60;99.90
5683;DHT22;2864;49.220;8.654;2022-10-16T02:36:47;15.50;99.90
5683;DHT22;2864;49.220;8.654;2022-10-16T02:39:15;15.50;99.90
5683;DHT22;2864;49.220;8.654;2022-10-16T02:41:41;15.50;99.90
5683;DHT22;2864;49.220;8.654;2022-10-16T02:44:06;15.40;99.90
5683;DHT22;2864;49.220;8.654;2022-10-16T02:46:32;15.40;99.90
5683;DHT22;2864;49.220;8.654;2022-10-16T02:48:57;15.40;99.90
5683;DHT22;2864;49.220;8.654;2022-10-16T02:51:23;15.40;99.90
5683;DHT22;2864;49.220;8.654;2022-10-16T02:53:48;15.30;99.90
5683;DHT22;2864;49.220;8.654;2022-10-16T02:56:14;15.30;99.90
5683;DHT22;2864;49.220;8.654;2022-10-16T02:58:39;17.60;99.90
5683;DHT22;2864;49.220;8.654;2022-10-16T03:01:05;15.30;99.90
5683;DHT22;2864;49.220;8.654;2022-10-16T03:03:30;15.30;99.90
5683;DHT22;2864;49.220;8.654;2022-10-16T03:05:56;15.30;99.90
5683;DHT22;2864;49.220;8.654;2022-10-16T03:08:22;15.40;99.90
5683;DHT22;2864;49.220;8.654;2022-10-16T03:10:49;15.40;99.90
5683;DHT22;2864;49.220;8.654;2022-10-16T03:13:15;15.40;99.90
5683;DHT22;2864;49.220;8.654;2022-10-16T03:15:41;15.40;99.90
5683;DHT22;2864;49.220;8.654;2022-10-16T03:18:06;15.40;99.90
5683;DHT22;2864;49.220;8.654;2022-10-16T03:20:32;15.40;99.90
5683;DHT22;2864;49.220;8.654;2022-10-16T03:22:58;15.30;99.90
5683;DHT22;2864;49.220;8.654;2022-10-16T03:25:23;15.40;99.90
5683;DHT22;2864;49.220;8.654;2022-10-16T03:27:49;15.30;99.90
5683;DHT22;2864;49.220;8.654;2022-10-16T03:30:14;15.40;99.90
5683;DHT22;2864;49.220;8.654;2022-10-16T03:32:40;15.30;99.90
5683;DHT22;2864;49.220;8.654;2022-10-16T03:35:06;16.90;99.90
5683;DHT22;2864;49.220;8.654;2022-10-16T03:37:32;15.30;99.90
5683;DHT22;2864;49.220;8.654;2022-10-16T03:39:57;15.30;99.90
5683;DHT22;2864;49.220;8.654;2022-10-16T03:42:23;15.30;99.90
5683;DHT22;2864;49.220;8.654;2022-10-16T03:44:49;15.30;99.90
5683;DHT22;2864;49.220;8.654;2022-10-16T03:47:15;16.00;99.90
5683;DHT22;2864;49.220;8.654;2022-10-16T03:49:40;15.20;99.90
5683;DHT22;2864;49.220;8.654;2022-10-16T03:52:06;15.20;99.90
5683;DHT22;2864;49.220;8.654;2022-10-16T03:54:32;16.90;99.90
5683;DHT22;2864;49.220;8.654;2022-10-16T03:56:57;15.10;99.90
5683;DHT22;2864;49.220;8.654;2022-10-16T03:59:23;16.50;99.90
5683;DHT22;2864;49.220;8.654;2022-10-16T04:01:49;15.90;99.90
5683;DHT22;2864;49.220;8.654;2022-10-16T04:04:14;15.10;99.90
5683;DHT22;2864;49.220;8.654;2022-10-16T04:06:40;15.20;99.90
5683;DHT22;2864;49.220;8.654;2022-10-16T04:09:05;15.20;99.90
5683;DHT22;2864;49.220;8.654;2022-10-16T04:11:31;15.80;99.90
5683;DHT22;2864;49.220;8.654;2022-10-16T04:13:56;15.30;99.90
5683;DHT22;2864;49.220;8.654;2022-10-16T04:16:23;15.20;99.90
5683;DHT22;2864;49.220;8.654;2022-10-16T04:18:48;15.20;99.90
5683;DHT22;2864;49.220;8.654;2022-10-16T04:21:14;16.80;99.90
5683;DHT22;2864;49.220;8.654;2022-10-16T04:23:42;15.20;99.90
5683;DHT22;2864;49.220;8.654;2022-10-16T04:26:08;15.90;99.90
5683;DHT22;2864;49.220;8.654;2022-10-16T04:28:35;15.30;99.90
5683;DHT22;2864;49.220;8.654;2022-10-16T04:31:05;15.30;99.90
5683;DHT22;2864;49.220;8.654;2022-10-16T04:33:31;15.70;99.90
5683;DHT22;2864;49.220;8.654;2022-10-16T04:36:00;15.20;99.90
5683;DHT22;2864;49.220;8.654;2022-10-16T04:38:26;16.90;99.90
5683;DHT22;2864;49.220;8.654;2022-10-16T04:40:52;15.30;99.90
5683;DHT22;2864;49.220;8.654;2022-10-16T04:43:23;15.30;99.90
5683;DHT22;2864;49.220;8.654;2022-10-16T04:45:50;15.20;99.90
5683;DHT22;2864;49.220;8.654;2022-10-16T04:48:19;17.60;99.90
5683;DHT22;2864;49.220;8.654;2022-10-16T04:50:45;15.30;99.90
5683;DHT22;2864;49.220;8.654;2022-10-16T04:53:13;15.20;99.90
5683;DHT22;2864;49.220;8.654;2022-10-16T04:55:44;15.10;99.90
5683;DHT22;2864;49.220;8.654;2022-10-16T04:58:09;15.10;99.90
5683;DHT22;2864;49.220;8.654;2022-10-16T05:00:35;15.20;99.90
5683;DHT22;2864;49.220;8.654;2022-10-16T05:03:03;15.10;99.90
5683;DHT22;2864;49.220;8.654;2022-10-16T05:05:36;15.10;99.90
5683;DHT22;2864;49.220;8.654;2022-10-16T05:08:02;15.00;99.90
5683;DHT22;2864;49.220;8.654;2022-10-16T05:10:29;15.10;99.90
5683;DHT22;2864;49.220;8.654;2022-10-16T05:12:54;15.10;99.90
5683;DHT22;2864;49.220;8.654;2022-10-16T05:15:20;16.80;99.90
5683;DHT22;2864;49.220;8.654;2022-10-16T05:17:45;15.10;99.90
5683;DHT22;2864;49.220;8.654;2022-10-16T05:20:12;15.10;99.90
5683;DHT22;2864;49.220;8.654;2022-10-16T05:22:37;15.40;99.90
5683;DHT22;2864;49.220;8.654;2022-10-16T05:25:03;15.70;99.90
5683;DHT22;2864;49.220;8.654;2022-10-16T05:27:29;15.10;99.90
5683;DHT22;2864;49.220;8.654;2022-10-16T05:29:55;15.10;99.90
5683;DHT22;2864;49.220;8.654;2022-10-16T05:32:20;15.10;99.90
5683;DHT22;2864;49.220;8.654;2022-10-16T05:34:46;15.10;99.90
5683;DHT22;2864;49.220;8.654;2022-10-16T05:37:12;15.10;99.90
5683;DHT22;2864;49.220;8.654;2022-10-16T05:39:38;16.10;99.90
5683;DHT22;2864;49.220;8.654;2022-10-16T05:42:04;16.90;99.90
5683;DHT22;2864;49.220;8.654;2022-10-16T05:44:30;16.60;99.90
5683;DHT22;2864;49.220;8.654;2022-10-16T05:46:56;15.90;99.90
5683;DHT22;2864;49.220;8.654;2022-10-16T05:49:21;16.20;99.90
5683;DHT22;2864;49.220;8.654;2022-10-16T05:51:47;15.20;99.90
5683;DHT22;2864;49.220;8.654;2022-10-16T05:54:12;16.00;99.90
5683;DHT22;2864;49.220;8.654;2022-10-16T05:56:38;15.50;99.90
5683;DHT22;2864;49.220;8.654;2022-10-16T05:59:04;16.00;99.90
5683;DHT22;2864;49.220;8.654;2022-10-16T06:01:30;16.70;99.90
5683;DHT22;2864;49.220;8.654;2022-10-16T06:03:56;15.40;99.90
5683;DHT22;2864;49.220;8.654;2022-10-16T06:06:24;15.80;99.90
5683;DHT22;2864;49.220;8.654;2022-10-16T06:12:13;15.10;99.90
5683;DHT22;2864;49.220;8.654;2022-10-16T06:14:38;15.10;99.90
5683;DHT22;2864;49.220;8.654;2022-10-16T06:17:04;15.10;99.90
5683;DHT22;2864;49.220;8.654;2022-10-16T06:19:29;15.00;99.90
5683;DHT22;2864;49.220;8.654;2022-10-16T06:21:56;15.00;99.90
5683;DHT22;2864;49.220;8.654;2022-10-16T06:24:23;15.10;99.90
5683;DHT22;2864;49.220;8.654;2022-10-16T06:26:48;15.50;99.90
5683;DHT22;2864;49.220;8.654;2022-10-16T06:29:14;15.10;99.90
5683;DHT22;2864;49.220;8.654;2022-10-16T06:31:40;15.10;99.90
5683;DHT22;2864;49.220;8.654;2022-10-16T06:34:05;15.10;99.90
5683;DHT22;2864;49.220;8.654;2022-10-16T06:36:35;16.70;99.90
5683;DHT22;2864;49.220;8.654;2022-10-16T06:39:00;15.10;99.90
5683;DHT22;2864;49.220;8.654;2022-10-16T06:41:26;15.10;99.90
5683;DHT22;2864;49.220;8.654;2022-10-16T06:43:52;16.60;99.90
5683;DHT22;2864;49.220;8.654;2022-10-16T06:46:21;15.50;99.90
5683;DHT22;2864;49.220;8.654;2022-10-16T06:48:47;15.20;99.90
5683;DHT22;2864;49.220;8.654;2022-10-16T06:53:43;15.30;99.90
5683;DHT22;2864;49.220;8.654;2022-10-16T06:56:24;16.50;99.90
5683;DHT22;2864;49.220;8.654;2022-10-16T06:58:50;15.30;99.90
5683;DHT22;2864;49.220;8.654;2022-10-16T07:01:19;15.40;99.90
5683;DHT22;2864;49.220;8.654;2022-10-16T07:03:45;15.40;99.90
5683;DHT22;2864;49.220;8.654;2022-10-16T07:06:14;15.50;99.90
5683;DHT22;2864;49.220;8.654;2022-10-16T07:08:41;15.60;99.90
5683;DHT22;2864;49.220;8.654;2022-10-16T07:11:09;15.60;99.90
5683;DHT22;2864;49.220;8.654;2022-10-16T07:13:36;15.70;99.90
5683;DHT22;2864;49.220;8.654;2022-10-16T07:16:10;15.80;99.90
5683;DHT22;2864;49.220;8.654;2022-10-16T07:18:36;15.90;99.90
5683;DHT22;2864;49.220;8.654;2022-10-16T07:21:09;15.90;99.90
5683;DHT22;2864;49.220;8.654;2022-10-16T07:23:36;16.10;99.90
5683;DHT22;2864;49.220;8.654;2022-10-16T07:26:02;16.20;99.90
5683;DHT22;2864;49.220;8.654;2022-10-16T07:28:28;16.30;99.90
5683;DHT22;2864;49.220;8.654;2022-10-16T07:30:54;16.40;99.90
5683;DHT22;2864;49.220;8.654;2022-10-16T07:33:19;16.50;99.90
5683;DHT22;2864;49.220;8.654;2022-10-16T07:35:52;16.50;99.90
5683;DHT22;2864;49.220;8.654;2022-10-16T07:38:19;16.50;99.90
5683;DHT22;2864;49.220;8.654;2022-10-16T07:40:45;16.60;99.90
5683;DHT22;2864;49.220;8.654;2022-10-16T07:43:11;16.60;99.90
5683;DHT22;2864;49.220;8.654;2022-10-16T07:45:37;16.60;99.90
5683;DHT22;2864;49.220;8.654;2022-10-16T07:48:03;18.30;99.90
5683;DHT22;2864;49.220;8.654;2022-10-16T07:50:28;16.80;99.90
5683;DHT22;2864;49.220;8.654;2022-10-16T07:52:54;17.10;99.90
5683;DHT22;2864;49.220;8.654;2022-10-16T07:55:19;17.10;99.90
5683;DHT22;2864;49.220;8.654;2022-10-16T07:57:45;17.20;99.90
5683;DHT22;2864;49.220;8.654;2022-10-16T08:00:10;17.30;99.90
5683;DHT22;2864;49.220;8.654;2022-10-16T08:02:39;17.40;99.90
5683;DHT22;2864;49.220;8.654;2022-10-16T08:05:06;17.40;99.90
5683;DHT22;2864;49.220;8.654;2022-10-16T08:07:32;17.50;99.90
5683;DHT22;2864;49.220;8.654;2022-10-16T08:09:57;17.80;99.90
5683;DHT22;2864;49.220;8.654;2022-10-16T08:12:24;17.60;99.90
5683;DHT22;2864;49.220;8.654;2022-10-16T08:14:50;17.70;99.90
5683;DHT22;2864;49.220;8.654;2022-10-16T08:17:15;18.90;99.90
5683;DHT22;2864;49.220;8.654;2022-10-16T08:19:45;17.90;99.90
5683;DHT22;2864;49.220;8.654;2022-10-16T08:22:11;17.90;99.90
5683;DHT22;2864;49.220;8.654;2022-10-16T08:24:36;18.00;99.90
5683;DHT22;2864;49.220;8.654;2022-10-16T08:27:02;20.00;99.90
5683;DHT22;2864;49.220;8.654;2022-10-16T08:29:28;18.00;99.90
5683;DHT22;2864;49.220;8.654;2022-10-16T08:31:53;20.30;99.90
5683;DHT22;2864;49.220;8.654;2022-10-16T08:34:19;19.00;99.90
5683;DHT22;2864;49.220;8.654;2022-10-16T08:36:45;18.00;99.90
5683;DHT22;2864;49.220;8.654;2022-10-16T08:39:10;18.10;99.90
5683;DHT22;2864;49.220;8.654;2022-10-16T08:44:44;18.30;99.90
5683;DHT22;2864;49.220;8.654;2022-10-16T08:47:23;18.30;99.90
5683;DHT22;2864;49.220;8.654;2022-10-16T08:49:58;18.50;99.90
5683;DHT22;2864;49.220;8.654;2022-10-16T08:52:29;18.60;99.90
5683;DHT22;2864;49.220;8.654;2022-10-16T08:54:57;18.50;99.90
5683;DHT22;2864;49.220;8.654;2022-10-16T08:57:24;18.60;99.90
5683;DHT22;2864;49.220;8.654;2022-10-16T08:59:52;19.40;99.90
5683;DHT22;2864;49.220;8.654;2022-10-16T09:02:26;20.00;99.90
5683;DHT22;2864;49.220;8.654;2022-10-16T09:05:42;18.60;99.90
5683;DHT22;2864;49.220;8.654;2022-10-16T09:08:13;18.50;99.90
5683;DHT22;2864;49.220;8.654;2022-10-16T09:15:55;18.80;99.90
5683;DHT22;2864;49.220;8.654;2022-10-16T09:18:46;18.80;99.90
5683;DHT22;2864;49.220;8.654;2022-10-16T09:21:29;18.90;99.90
5683;DHT22;2864;49.220;8.654;2022-10-16T09:24:20;20.40;99.90
5683;DHT22;2864;49.220;8.654;2022-10-16T09:26:47;19.70;99.90
5683;DHT22;2864;49.220;8.654;2022-10-16T09:29:14;18.90;99.90
5683;DHT22;2864;49.220;8.654;2022-10-16T09:31:40;19.00;99.90
5683;DHT22;2864;49.220;8.654;2022-10-16T09:34:09;19.40;99.90
5683;DHT22;2864;49.220;8.654;2022-10-16T09:36:42;19.20;99.90
5683;DHT22;2864;49.220;8.654;2022-10-16T09:39:11;19.50;99.90
5683;DHT22;2864;49.220;8.654;2022-10-16T09:41:42;19.60;99.90
5683;DHT22;2864;49.220;8.654;2022-10-16T09:44:29;19.70;99.90
5683;DHT22;2864;49.220;8.654;2022-10-16T09:47:25;20.00;99.90
5683;DHT22;2864;49.220;8.654;2022-10-16T09:50:00;20.30;99.90
5683;DHT22;2864;49.220;8.654;2022-10-16T09:52:28;20.80;99.90
5683;DHT22;2864;49.220;8.654;2022-10-16T09:55:01;21.10;99.90
5683;DHT22;2864;49.220;8.654;2022-10-16T09:57:27;21.30;99.90
5683;DHT22;2864;49.220;8.654;2022-10-16T09:59:57;21.40;99.90
5683;DHT22;2864;49.220;8.654;2022-10-16T10:02:30;22.00;99.90
5683;DHT22;2864;49.220;8.654;2022-10-16T10:04:56;21.60;99.90
5683;DHT22;2864;49.220;8.654;2022-10-16T10:07:33;21.70;99.90
5683;DHT22;2864;49.220;8.654;2022-10-16T10:10:03;21.60;99.90
5683;DHT22;2864;49.220;8.654;2022-10-16T10:12:31;21.80;99.90
5683;DHT22;2864;49.220;8.654;2022-10-16T10:15:04;21.80;99.90
5683;DHT22;2864;49.220;8.654;2022-10-16T10:17:31;21.90;99.90
5683;DHT22;2864;49.220;8.654;2022-10-16T10:19:59;21.70;99.90
5683;DHT22;2864;49.220;8.654;2022-10-16T10:22:41;21.70;99.90
5683;DHT22;2864;49.220;8.654;2022-10-16T10:30:41;22.00;99.90
5683;DHT22;2864;49.220;8.654;2022-10-16T10:36:38;22.10;99.90
5683;DHT22;2864;49.220;8.654;2022-10-16T10:39:06;22.10;99.90
5683;DHT22;2864;49.220;8.654;2022-10-16T10:41:45;22.00;99.90
5683;DHT22;2864;49.220;8.654;2022-10-16T10:44:49;22.00;99.90
5683;DHT22;2864;49.220;8.654;2022-10-16T10:52:54;22.30;99.90
5683;DHT22;2864;49.220;8.654;2022-10-16T11:01:04;22.20;99.90
5683;DHT22;2864;49.220;8.654;2022-10-16T11:06:39;22.20;99.90
5683;DHT22;2864;49.220;8.654;2022-10-16T11:14:19;22.40;99.90
5683;DHT22;2864;49.220;8.654;2022-10-16T11:16:57;22.60;99.90
5683;DHT22;2864;49.220;8.654;2022-10-16T11:22:37;22.90;99.90
5683;DHT22;2864;49.220;8.654;2022-10-16T11:25:22;23.50;99.90
5683;DHT22;2864;49.220;8.654;2022-10-16T11:27:56;23.70;99.90
5683;DHT22;2864;49.220;8.654;2022-10-16T11:30:26;23.80;99.90
5683;DHT22;2864;49.220;8.654;2022-10-16T11:35:37;23.40;99.90
5683;DHT22;2864;49.220;8.654;2022-10-16T11:38:09;23.50;99.90
5683;DHT22;2864;49.220;8.654;2022-10-16T11:40:38;23.40;99.90
5683;DHT22;2864;49.220;8.654;2022-10-16T11:45:53;23.40;99.90
5683;DHT22;2864;49.220;8.654;2022-10-16T11:48:30;23.40;99.90
5683;DHT22;2864;49.220;8.654;2022-10-16T11:51:08;23.40;99.90
5683;DHT22;2864;49.220;8.654;2022-10-16T11:53:59;23.30;99.90
5683;DHT22;2864;49.220;8.654;2022-10-16T11:56:27;22.90;99.90
5683;DHT22;2864;49.220;8.654;2022-10-16T11:59:03;22.80;99.90
5683;DHT22;2864;49.220;8.654;2022-10-16T12:01:32;23.00;99.90
5683;DHT22;2864;49.220;8.654;2022-10-16T12:04:10;23.40;99.90
5683;DHT22;2864;49.220;8.654;2022-10-16T12:09:32;23.30;99.90
5683;DHT22;2864;49.220;8.654;2022-10-16T12:11:58;23.30;99.80
5683;DHT22;2864;49.220;8.654;2022-10-16T12:19:59;23.30;99.90
5683;DHT22;2864;49.220;8.654;2022-10-16T12:22:28;23.40;99.90
5683;DHT22;2864;49.220;8.654;2022-10-16T12:24:54;23.30;99.70
5683;DHT22;2864;49.220;8.654;2022-10-16T12:27:31;24.10;99.90
5683;DHT22;2864;49.220;8.654;2022-10-16T12:30:02;23.50;99.30
5683;DHT22;2864;49.220;8.654;2022-10-16T12:34:57;24.20;98.80
5683;DHT22;2864;49.220;8.654;2022-10-16T12:37:36;24.20;99.20
5683;DHT22;2864;49.220;8.654;2022-10-16T12:40:29;24.00;98.90
5683;DHT22;2864;49.220;8.654;2022-10-16T12:42:56;23.80;97.80
5683;DHT22;2864;49.220;8.654;2022-10-16T12:45:28;23.90;97.90
5683;DHT22;2864;49.220;8.654;2022-10-16T12:47:54;23.90;97.70
5683;DHT22;2864;49.220;8.654;2022-10-16T12:52:54;23.40;99.10
5683;DHT22;2864;49.220;8.654;2022-10-16T12:55:21;23.20;99.00
5683;DHT22;2864;49.220;8.654;2022-10-16T13:11:26;22.50;99.90
5683;DHT22;2864;49.220;8.654;2022-10-16T13:20:03;22.20;99.90
5683;DHT22;2864;49.220;8.654;2022-10-16T13:22:45;22.10;99.90
5683;DHT22;2864;49.220;8.654;2022-10-16T13:28:04;21.90;99.90
5683;DHT22;2864;49.220;8.654;2022-10-16T13:30:34;21.70;99.90
5683;DHT22;2864;49.220;8.654;2022-10-16T13:33:06;21.60;99.90
5683;DHT22;2864;49.220;8.654;2022-10-16T13:35:34;21.50;99.90
5683;DHT22;2864;49.220;8.654;2022-10-16T13:38:18;21.30;99.90
5683;DHT22;2864;49.220;8.654;2022-10-16T13:40:54;21.20;99.90
5683;DHT22;2864;49.220;8.654;2022-10-16T13:43:38;21.10;99.90
5683;DHT22;2864;49.220;8.654;2022-10-16T13:46:07;21.00;99.90
5683;DHT22;2864;49.220;8.654;2022-10-16T13:48:36;20.90;99.90
5683;DHT22;2864;49.220;8.654;2022-10-16T13:51:34;20.90;99.90
5683;DHT22;2864;49.220;8.654;2022-10-16T13:53:59;20.80;99.90
5683;DHT22;2864;49.220;8.654;2022-10-16T13:56:30;20.70;99.90
5683;DHT22;2864;49.220;8.654;2022-10-16T13:59:32;20.60;99.90
5683;DHT22;2864;49.220;8.654;2022-10-16T14:01:53;20.60;99.90
5683;DHT22;2864;49.220;8.654;2022-10-16T14:04:20;20.60;99.90
5683;DHT22;2864;49.220;8.654;2022-10-16T14:06:49;20.80;99.90
5683;DHT22;2864;49.220;8.654;2022-10-16T14:09:28;20.40;99.90
5683;DHT22;2864;49.220;8.654;2022-10-16T14:12:03;20.40;99.90
5683;DHT22;2864;49.220;8.654;2022-10-16T14:14:39;20.40;99.90
5683;DHT22;2864;49.220;8.654;2022-10-16T14:17:05;20.40;99.90
5683;DHT22;2864;49.220;8.654;2022-10-16T14:19:31;20.30;99.90
5683;DHT22;2864;49.220;8.654;2022-10-16T14:21:59;20.20;99.90
5683;DHT22;2864;49.220;8.654;2022-10-16T14:26:53;20.20;99.90
5683;DHT22;2864;49.220;8.654;2022-10-16T14:29:22;20.00;99.90
5683;DHT22;2864;49.220;8.654;2022-10-16T14:32:05;20.00;99.90
5683;DHT22;2864;49.220;8.654;2022-10-16T14:34:33;20.00;99.90
5683;DHT22;2864;49.220;8.654;2022-10-16T14:37:22;20.90;99.90
5683;DHT22;2864;49.220;8.654;2022-10-16T14:39:52;19.90;99.90
5683;DHT22;2864;49.220;8.654;2022-10-16T14:42:19;19.80;99.90
5683;DHT22;2864;49.220;8.654;2022-10-16T14:44:46;19.80;99.90
5683;DHT22;2864;49.220;8.654;2022-10-16T14:47:17;19.70;99.90
5683;DHT22;2864;49.220;8.654;2022-10-16T14:49:49;19.90;99.90
5683;DHT22;2864;49.220;8.654;2022-10-16T14:52:15;19.80;99.90
5683;DHT22;2864;49.220;8.654;2022-10-16T14:54:41;20.20;99.90
5683;DHT22;2864;49.220;8.654;2022-10-16T14:57:17;20.40;99.90
5683;DHT22;2864;49.220;8.654;2022-10-16T14:59:43;21.00;99.90
5683;DHT22;2864;49.220;8.654;2022-10-16T15:07:57;23.50;99.90
5683;DHT22;2864;49.220;8.654;2022-10-16T15:10:53;24.80;99.90
5683;DHT22;2864;49.220;8.654;2022-10-16T15:17:09;24.10;99.90
5683;DHT22;2864;49.220;8.654;2022-10-16T15:22:54;23.40;99.90
5683;DHT22;2864;49.220;8.654;2022-10-16T15:28:03;22.40;99.90
5683;DHT22;2864;49.220;8.654;2022-10-16T15:30:29;21.90;99.90
5683;DHT22;2864;49.220;8.654;2022-10-16T15:42:46;20.70;99.90
5683;DHT22;2864;49.220;8.654;2022-10-16T15:45:12;20.60;99.90
5683;DHT22;2864;49.220;8.654;2022-10-16T15:47:40;20.40;99.90
5683;DHT22;2864;49.220;8.654;2022-10-16T15:50:06;20.30;99.90
5683;DHT22;2864;49.220;8.654;2022-10-16T15:52:32;20.20;99.90
5683;DHT22;2864;49.220;8.654;2022-10-16T15:54:58;20.30;99.90
5683;DHT22;2864;49.220;8.654;2022-10-16T15:57:24;20.10;99.90
5683;DHT22;2864;49.220;8.654;2022-10-16T15:59:50;20.00;99.90
5683;DHT22;2864;49.220;8.654;2022-10-16T16:02:15;20.00;99.90
5683;DHT22;2864;49.220;8.654;2022-10-16T16:04:41;20.00;99.90
5683;DHT22;2864;49.220;8.654;2022-10-16T16:07:07;20.50;99.90
5683;DHT22;2864;49.220;8.654;2022-10-16T16:09:33;20.10;99.90
5683;DHT22;2864;49.220;8.654;2022-10-16T16:11:59;19.90;99.90
5683;DHT22;2864;49.220;8.654;2022-10-16T16:14:27;19.80;99.90
5683;DHT22;2864;49.220;8.654;2022-10-16T16:16:54;19.70;99.90
5683;DHT22;2864;49.220;8.654;2022-10-16T16:19:20;19.60;99.90
5683;DHT22;2864;49.220;8.654;2022-10-16T16:21:47;20.70;99.90
5683;DHT22;2864;49.220;8.654;2022-10-16T16:24:13;19.20;99.90
5683;DHT22;2864;49.220;8.654;2022-10-16T16:26:38;18.90;99.90
5683;DHT22;2864;49.220;8.654;2022-10-16T16:29:11;18.70;99.90
5683;DHT22;2864;49.220;8.654;2022-10-16T16:31:38;18.50;99.90
5683;DHT22;2864;49.220;8.654;2022-10-16T16:34:04;18.30;99.90
5683;DHT22;2864;49.220;8.654;2022-10-16T16:36:29;18.10;99.90
5683;DHT22;2864;49.220;8.654;2022-10-16T16:38:56;18.70;99.90
5683;DHT22;2864;49.220;8.654;2022-10-16T16:41:24;17.70;99.90
5683;DHT22;2864;49.220;8.654;2022-10-16T16:43:51;17.70;99.90
5683;DHT22;2864;49.220;8.654;2022-10-16T16:46:19;17.50;99.90
5683;DHT22;2864;49.220;8.654;2022-10-16T16:48:45;17.40;99.90
5683;DHT22;2864;49.220;8.654;2022-10-16T16:51:16;17.30;99.90
5683;DHT22;2864;49.220;8.654;2022-10-16T16:53:46;17.20;99.90
5683;DHT22;2864;49.220;8.654;2022-10-16T16:56:12;17.10;99.90
5683;DHT22;2864;49.220;8.654;2022-10-16T16:58:38;17.00;99.90
5683;DHT22;2864;49.220;8.654;2022-10-16T17:01:04;16.90;99.90
5683;DHT22;2864;49.220;8.654;2022-10-16T17:03:31;16.90;99.90
5683;DHT22;2864;49.220;8.654;2022-10-16T17:05:59;16.80;99.90
5683;DHT22;2864;49.220;8.654;2022-10-16T17:08:25;16.60;99.90
5683;DHT22;2864;49.220;8.654;2022-10-16T17:10:52;16.50;99.90
5683;DHT22;2864;49.220;8.654;2022-10-16T17:13:21;16.50;99.90
5683;DHT22;2864;49.220;8.654;2022-10-16T17:15:48;16.40;99.90
5683;DHT22;2864;49.220;8.654;2022-10-16T17:18:14;16.40;99.90
5683;DHT22;2864;49.220;8.654;2022-10-16T17:20:40;16.30;99.90
5683;DHT22;2864;49.220;8.654;2022-10-16T17:23:07;16.20;99.90
5683;DHT22;2864;49.220;8.654;2022-10-16T17:25:35;16.20;99.90
5683;DHT22;2864;49.220;8.654;2022-10-16T17:28:01;16.50;99.90
5683;DHT22;2864;49.220;8.654;2022-10-16T17:30:27;16.90;99.90
5683;DHT22;2864;49.220;8.654;2022-10-16T17:32:52;17.50;99.90
5683;DHT22;2864;49.220;8.654;2022-10-16T17:35:18;16.90;99.90
5683;DHT22;2864;49.220;8.654;2022-10-16T17:37:43;16.60;99.90
5683;DHT22;2864;49.220;8.654;2022-10-16T17:40:10;16.30;99.90
5683;DHT22;2864;49.220;8.654;2022-10-16T17:42:38;15.90;99.90
5683;DHT22;2864;49.220;8.654;2022-10-16T17:45:04;16.00;99.90
5683;DHT22;2864;49.220;8.654;2022-10-16T17:47:30;15.90;99.90
5683;DHT22;2864;49.220;8.654;2022-10-16T17:49:55;16.60;99.90
5683;DHT22;2864;49.220;8.654;2022-10-16T17:52:23;17.70;99.90
5683;DHT22;2864;49.220;8.654;2022-10-16T17:54:50;15.80;99.90
5683;DHT22;2864;49.220;8.654;2022-10-16T17:57:16;15.70;99.90
5683;DHT22;2864;49.220;8.654;2022-10-16T18:06:27;15.70;99.90
5683;DHT22;2864;49.220;8.654;2022-10-16T18:08:55;15.70;99.90
5683;DHT22;2864;49.220;8.654;2022-10-16T18:11:21;15.60;99.90
5683;DHT22;2864;49.220;8.654;2022-10-16T18:13:47;15.70;99.90
5683;DHT22;2864;49.220;8.654;2022-10-16T18:16:14;15.60;99.90
5683;DHT22;2864;49.220;8.654;2022-10-16T18:18:41;16.40;99.90
5683;DHT22;2864;49.220;8.654;2022-10-16T18:21:08;15.60;99.90
5683;DHT22;2864;49.220;8.654;2022-10-16T18:23:36;15.60;99.90
5683;DHT22;2864;49.220;8.654;2022-10-16T18:26:03;15.60;99.90
5683;DHT22;2864;49.220;8.654;2022-10-16T18:28:29;15.50;99.90
5683;DHT22;2864;49.220;8.654;2022-10-16T18:31:04;15.60;99.90